sensor_id;sensor_type;location;lat;lon;timestamp;temperature;humidity
60293;DHT22;52402;52.670;6.750;2024-03-29T00:00:41;8.00;99.90
60293;DHT22;52402;52.670;6.750;2024-03-29T00:03:07;8.00;99.90
60293;DHT22;52402;52.670;6.750;2024-03-29T00:05:36;8.00;99.90
60293;DHT22;52402;52.670;6.750;2024-03-29T00:08:05;7.90;99.90
60293;DHT22;52402;52.670;6.750;2024-03-29T00:10:31;7.90;99.90
60293;DHT22;52402;52.670;6.750;2024-03-29T00:12:57;7.90;99.90
60293;DHT22;52402;52.670;6.750;2024-03-29T00:15:23;7.80;99.90
60293;DHT22;52402;52.670;6.750;2024-03-29T00:17:48;7.80;99.90
60293;DHT22;52402;52.670;6.750;2024-03-29T00:20:14;7.70;99.90
60293;DHT22;52402;52.670;6.750;2024-03-29T00:22:40;7.70;99.90
60293;DHT22;52402;52.670;6.750;2024-03-29T00:25:06;7.70;99.90
60293;DHT22;52402;52.670;6.750;2024-03-29T00:27:32;7.60;99.90
60293;DHT22;52402;52.670;6.750;2024-03-29T00:29:58;7.70;99.90
60293;DHT22;52402;52.670;6.750;2024-03-29T00:32:24;7.60;99.90
60293;DHT22;52402;52.670;6.750;2024-03-29T00:34:51;7.60;99.90
60293;DHT22;52402;52.670;6.750;2024-03-29T00:37:17;7.60;99.90
60293;DHT22;52402;52.670;6.750;2024-03-29T00:39:43;7.60;99.90
60293;DHT22;52402;52.670;6.750;2024-03-29T00:42:09;7.60;99.90
60293;DHT22;52402;52.670;6.750;2024-03-29T00:44:38;7.60;99.90
60293;DHT22;52402;52.670;6.750;2024-03-29T00:47:04;7.50;99.90
60293;DHT22;52402;52.670;6.750;2024-03-29T00:49:30;7.50;99.90
60293;DHT22;52402;52.670;6.750;2024-03-29T00:51:56;7.50;99.90
60293;DHT22;52402;52.670;6.750;2024-03-29T00:54:21;7.50;99.90
60293;DHT22;52402;52.670;6.750;2024-03-29T00:56:49;7.60;99.90
60293;DHT22;52402;52.670;6.750;2024-03-29T00:59:15;7.60;99.90
60293;DHT22;52402;52.670;6.750;2024-03-29T01:01:40;7.60;99.90
60293;DHT22;52402;52.670;6.750;2024-03-29T01:04:07;7.50;99.90
60293;DHT22;52402;52.670;6.750;2024-03-29T01:06:32;7.50;99.90
60293;DHT22;52402;52.670;6.750;2024-03-29T01:08:58;7.60;99.90
60293;DHT22;52402;52.670;6.750;2024-03-29T01:11:23;7.50;99.90
60293;DHT22;52402;52.670;6.750;2024-03-29T01:13:49;7.60;99.90
60293;DHT22;52402;52.670;6.750;2024-03-29T01:16:14;7.60;99.90
60293;DHT22;52402;52.670;6.750;2024-03-29T01:18:40;7.60;99.90
60293;DHT22;52402;52.670;6.750;2024-03-29T01:21:09;7.70;99.90
60293;DHT22;52402;52.670;6.750;2024-03-29T01:23:34;7.60;99.90
60293;DHT22;52402;52.670;6.750;2024-03-29T01:26:00;7.60;99.90
60293;DHT22;52402;52.670;6.750;2024-03-29T01:28:26;7.60;99.90
60293;DHT22;52402;52.670;6.750;2024-03-29T01:30:52;7.60;99.90
60293;DHT22;52402;52.670;6.750;2024-03-29T01:33:18;7.60;99.90
60293;DHT22;52402;52.670;6.750;2024-03-29T01:35:44;7.50;99.90
60293;DHT22;52402;52.670;6.750;2024-03-29T01:38:09;7.50;99.90
60293;DHT22;52402;52.670;6.750;2024-03-29T01:40:35;7.50;99.90
60293;DHT22;52402;52.670;6.750;2024-03-29T01:43:01;7.50;99.90
60293;DHT22;52402;52.670;6.750;2024-03-29T01:45:27;7.50;99.90
60293;DHT22;52402;52.670;6.750;2024-03-29T01:47:53;7.50;99.90
60293;DHT22;52402;52.670;6.750;2024-03-29T01:50:19;7.50;99.90
60293;DHT22;52402;52.670;6.750;2024-03-29T01:52:45;7.50;99.90
60293;DHT22;52402;52.670;6.750;2024-03-29T01:55:11;7.50;99.90
60293;DHT22;52402;52.670;6.750;2024-03-29T01:57:39;7.50;99.90
60293;DHT22;52402;52.670;6.750;2024-03-29T02:00:06;7.50;99.90
60293;DHT22;52402;52.670;6.750;2024-03-29T02:02:33;7.50;99.90
60293;DHT22;52402;52.670;6.750;2024-03-29T02:04:59;7.50;99.90
60293;DHT22;52402;52.670;6.750;2024-03-29T02:07:25;7.50;99.90
60293;DHT22;52402;52.670;6.750;2024-03-29T02:09:51;7.50;99.90
60293;DHT22;52402;52.670;6.750;2024-03-29T02:12:16;7.50;99.90
60293;DHT22;52402;52.670;6.750;2024-03-29T02:14:42;7.50;99.90
60293;DHT22;52402;52.670;6.750;2024-03-29T02:17:11;7.60;99.90
60293;DHT22;52402;52.670;6.750;2024-03-29T02:19:36;7.50;99.90
60293;DHT22;52402;52.670;6.750;2024-03-29T02:22:03;7.60;99.90
60293;DHT22;52402;52.670;6.750;2024-03-29T02:24:31;7.50;99.90
60293;DHT22;52402;52.670;6.750;2024-03-29T02:26:57;7.50;99.90
60293;DHT22;52402;52.670;6.750;2024-03-29T02:29:23;7.50;99.90
60293;DHT22;52402;52.670;6.750;2024-03-29T02:31:49;7.50;99.90
60293;DHT22;52402;52.670;6.750;2024-03-29T02:34:15;7.50;99.90
60293;DHT22;52402;52.670;6.750;2024-03-29T02:36:41;7.50;99.90
60293;DHT22;52402;52.670;6.750;2024-03-29T02:39:09;7.50;99.90
60293;DHT22;52402;52.670;6.750;2024-03-29T02:41:35;7.50;99.90
60293;DHT22;52402;52.670;6.750;2024-03-29T02:44:01;7.40;99.90
60293;DHT22;52402;52.670;6.750;2024-03-29T02:46:27;7.40;99.90
60293;DHT22;52402;52.670;6.750;2024-03-29T02:48:52;7.40;99.90
60293;DHT22;52402;52.670;6.750;2024-03-29T02:51:18;7.50;99.90
60293;DHT22;52402;52.670;6.750;2024-03-29T02:53:44;7.40;99.90
60293;DHT22;52402;52.670;6.750;2024-03-29T02:56:09;7.40;99.90
60293;DHT22;52402;52.670;6.750;2024-03-29T02:58:35;7.40;99.90
60293;DHT22;52402;52.670;6.750;2024-03-29T03:01:08;7.40;99.90
60293;DHT22;52402;52.670;6.750;2024-03-29T03:03:35;7.40;99.90
60293;DHT22;52402;52.670;6.750;2024-03-29T03:06:01;7.40;99.90
60293;DHT22;52402;52.670;6.750;2024-03-29T03:08:29;7.40;99.90
60293;DHT22;52402;52.670;6.750;2024-03-29T03:11:13;7.50;99.90
60293;DHT22;52402;52.670;6.750;2024-03-29T03:13:38;7.50;99.90
60293;DHT22;52402;52.670;6.750;2024-03-29T03:16:04;7.50;99.90
60293;DHT22;52402;52.670;6.750;2024-03-29T03:18:30;7.50;99.90
60293;DHT22;52402;52.670;6.750;2024-03-29T03:20:56;7.60;99.90
60293;DHT22;52402;52.670;6.750;2024-03-29T03:23:25;7.60;99.90
60293;DHT22;52402;52.670;6.750;2024-03-29T03:25:59;7.70;99.90
60293;DHT22;52402;52.670;6.750;2024-03-29T03:28:25;7.70;99.90
60293;DHT22;52402;52.670;6.750;2024-03-29T03:30:54;7.60;99.90
60293;DHT22;52402;52.670;6.750;2024-03-29T03:33:20;7.60;99.90
60293;DHT22;52402;52.670;6.750;2024-03-29T03:35:46;7.60;99.90
60293;DHT22;52402;52.670;6.750;2024-03-29T03:38:12;7.60;99.90
60293;DHT22;52402;52.670;6.750;2024-03-29T03:40:38;7.70;99.90
60293;DHT22;52402;52.670;6.750;2024-03-29T03:43:05;7.70;99.90
60293;DHT22;52402;52.670;6.750;2024-03-29T03:45:41;7.80;99.90
60293;DHT22;52402;52.670;6.750;2024-03-29T03:48:08;7.70;99.90
60293;DHT22;52402;52.670;6.750;2024-03-29T03:50:35;7.80;99.90
60293;DHT22;52402;52.670;6.750;2024-03-29T03:53:01;7.80;99.90
60293;DHT22;52402;52.670;6.750;2024-03-29T03:55:27;7.90;99.90
60293;DHT22;52402;52.670;6.750;2024-03-29T03:57:53;7.90;99.90
60293;DHT22;52402;52.670;6.750;2024-03-29T04:00:20;8.00;99.90
60293;DHT22;52402;52.670;6.750;2024-03-29T04:02:49;8.00;99.90
60293;DHT22;52402;52.670;6.750;2024-03-29T04:05:19;8.00;99.90
60293;DHT22;52402;52.670;6.750;2024-03-29T04:07:45;8.00;99.90
60293;DHT22;52402;52.670;6.750;2024-03-29T04:10:11;8.00;99.90
60293;DHT22;52402;52.670;6.750;2024-03-29T04:12:37;8.10;99.90
60293;DHT22;52402;52.670;6.750;2024-03-29T04:15:04;8.10;99.90
60293;DHT22;52402;52.670;6.750;2024-03-29T04:17:30;8.10;99.90
60293;DHT22;52402;52.670;6.750;2024-03-29T04:19:57;8.20;99.90
60293;DHT22;52402;52.670;6.750;2024-03-29T04:22:23;8.10;99.90
60293;DHT22;52402;52.670;6.750;2024-03-29T04:24:49;8.10;99.90
60293;DHT22;52402;52.670;6.750;2024-03-29T04:27:14;8.10;99.90
60293;DHT22;52402;52.670;6.750;2024-03-29T04:29:40;8.00;99.90
60293;DHT22;52402;52.670;6.750;2024-03-29T04:32:06;8.00;99.90
60293;DHT22;52402;52.670;6.750;2024-03-29T04:34:31;8.00;99.90
60293;DHT22;52402;52.670;6.750;2024-03-29T04:36:57;8.00;99.90
60293;DHT22;52402;52.670;6.750;2024-03-29T04:39:22;8.00;99.90
60293;DHT22;52402;52.670;6.750;2024-03-29T04:41:48;8.00;99.90
60293;DHT22;52402;52.670;6.750;2024-03-29T04:44:23;8.00;99.90
60293;DHT22;52402;52.670;6.750;2024-03-29T04:46:50;8.00;99.90
60293;DHT22;52402;52.670;6.750;2024-03-29T04:49:15;8.00;99.90
60293;DHT22;52402;52.670;6.750;2024-03-29T04:51:43;8.00;99.90
60293;DHT22;52402;52.670;6.750;2024-03-29T04:54:08;8.00;99.90
60293;DHT22;52402;52.670;6.750;2024-03-29T04:56:34;8.10;99.90
60293;DHT22;52402;52.670;6.750;2024-03-29T04:59:02;8.10;99.90
60293;DHT22;52402;52.670;6.750;2024-03-29T05:01:28;8.10;99.90
60293;DHT22;52402;52.670;6.750;2024-03-29T05:03:53;8.10;99.90
60293;DHT22;52402;52.670;6.750;2024-03-29T05:06:19;8.10;99.90
60293;DHT22;52402;52.670;6.750;2024-03-29T05:08:44;8.20;99.90
60293;DHT22;52402;52.670;6.750;2024-03-29T05:11:13;8.20;99.90
60293;DHT22;52402;52.670;6.750;2024-03-29T05:13:40;8.20;99.90
60293;DHT22;52402;52.670;6.750;2024-03-29T05:16:06;8.20;99.90
60293;DHT22;52402;52.670;6.750;2024-03-29T05:18:32;8.20;99.90
60293;DHT22;52402;52.670;6.750;2024-03-29T05:20:57;8.30;99.90
60293;DHT22;52402;52.670;6.750;2024-03-29T05:23:23;8.40;99.90
60293;DHT22;52402;52.670;6.750;2024-03-29T05:25:48;8.40;99.90
60293;DHT22;52402;52.670;6.750;2024-03-29T05:28:15;8.50;99.90
60293;DHT22;52402;52.670;6.750;2024-03-29T05:30:40;8.50;99.90
60293;DHT22;52402;52.670;6.750;2024-03-29T05:33:06;8.50;99.90
60293;DHT22;52402;52.670;6.750;2024-03-29T05:35:33;8.50;99.90
60293;DHT22;52402;52.670;6.750;2024-03-29T05:37:58;8.60;99.90
60293;DHT22;52402;52.670;6.750;2024-03-29T05:40:24;8.60;99.90
60293;DHT22;52402;52.670;6.750;2024-03-29T05:42:53;8.60;99.90
60293;DHT22;52402;52.670;6.750;2024-03-29T05:45:29;8.60;99.90
60293;DHT22;52402;52.670;6.750;2024-03-29T05:47:56;8.70;99.90
60293;DHT22;52402;52.670;6.750;2024-03-29T05:50:23;8.60;99.90
60293;DHT22;52402;52.670;6.750;2024-03-29T05:52:50;8.60;99.90
60293;DHT22;52402;52.670;6.750;2024-03-29T05:55:15;8.60;99.90
60293;DHT22;52402;52.670;6.750;2024-03-29T05:57:41;8.60;99.90
60293;DHT22;52402;52.670;6.750;2024-03-29T06:00:08;8.70;99.90
60293;DHT22;52402;52.670;6.750;2024-03-29T06:02:36;8.70;99.90
60293;DHT22;52402;52.670;6.750;2024-03-29T06:05:02;8.60;99.90
60293;DHT22;52402;52.670;6.750;2024-03-29T06:07:27;8.60;99.90
60293;DHT22;52402;52.670;6.750;2024-03-29T06:09:54;8.60;99.90
60293;DHT22;52402;52.670;6.750;2024-03-29T06:12:20;8.60;99.90
60293;DHT22;52402;52.670;6.750;2024-03-29T06:14:45;8.60;99.90
60293;DHT22;52402;52.670;6.750;2024-03-29T06:17:30;8.50;99.90
60293;DHT22;52402;52.670;6.750;2024-03-29T06:19:56;8.50;99.90
60293;DHT22;52402;52.670;6.750;2024-03-29T06:22:25;8.50;99.90
60293;DHT22;52402;52.670;6.750;2024-03-29T06:24:51;8.40;99.90
60293;DHT22;52402;52.670;6.750;2024-03-29T06:27:20;8.40;99.90
60293;DHT22;52402;52.670;6.750;2024-03-29T06:29:51;8.30;99.90
60293;DHT22;52402;52.670;6.750;2024-03-29T06:32:17;8.20;99.90
60293;DHT22;52402;52.670;6.750;2024-03-29T06:34:47;8.20;99.90
60293;DHT22;52402;52.670;6.750;2024-03-29T06:37:13;8.10;99.90
60293;DHT22;52402;52.670;6.750;2024-03-29T06:39:39;8.10;99.90
60293;DHT22;52402;52.670;6.750;2024-03-29T06:42:05;8.00;99.90
60293;DHT22;52402;52.670;6.750;2024-03-29T06:44:34;7.90;99.90
60293;DHT22;52402;52.670;6.750;2024-03-29T06:46:59;7.90;99.90
60293;DHT22;52402;52.670;6.750;2024-03-29T06:49:25;7.80;99.90
60293;DHT22;52402;52.670;6.750;2024-03-29T06:51:51;7.70;99.90
60293;DHT22;52402;52.670;6.750;2024-03-29T06:54:16;7.70;99.90
60293;DHT22;52402;52.670;6.750;2024-03-29T06:56:42;7.60;99.90
60293;DHT22;52402;52.670;6.750;2024-03-29T06:59:07;7.60;99.90
60293;DHT22;52402;52.670;6.750;2024-03-29T07:01:33;7.60;99.90
60293;DHT22;52402;52.670;6.750;2024-03-29T07:03:59;7.60;99.90
60293;DHT22;52402;52.670;6.750;2024-03-29T07:06:24;7.50;99.90
60293;DHT22;52402;52.670;6.750;2024-03-29T07:08:50;7.50;99.90
60293;DHT22;52402;52.670;6.750;2024-03-29T07:11:16;7.50;99.90
60293;DHT22;52402;52.670;6.750;2024-03-29T07:13:41;7.50;99.90
60293;DHT22;52402;52.670;6.750;2024-03-29T07:16:07;7.60;99.90
60293;DHT22;52402;52.670;6.750;2024-03-29T07:18:33;7.50;99.90
60293;DHT22;52402;52.670;6.750;2024-03-29T07:20:58;7.50;99.90
60293;DHT22;52402;52.670;6.750;2024-03-29T07:23:24;7.50;99.90
60293;DHT22;52402;52.670;6.750;2024-03-29T07:26:00;7.60;99.90
60293;DHT22;52402;52.670;6.750;2024-03-29T07:28:26;7.60;99.90
60293;DHT22;52402;52.670;6.750;2024-03-29T07:30:52;7.60;99.90
60293;DHT22;52402;52.670;6.750;2024-03-29T07:33:19;7.60;99.90
60293;DHT22;52402;52.670;6.750;2024-03-29T07:35:47;7.70;99.90
60293;DHT22;52402;52.670;6.750;2024-03-29T07:38:13;7.70;99.90
60293;DHT22;52402;52.670;6.750;2024-03-29T07:40:42;7.80;99.90
60293;DHT22;52402;52.670;6.750;2024-03-29T07:43:08;7.80;99.90
60293;DHT22;52402;52.670;6.750;2024-03-29T07:45:34;7.90;99.90
60293;DHT22;52402;52.670;6.750;2024-03-29T07:47:59;7.90;99.90
60293;DHT22;52402;52.670;6.750;2024-03-29T07:50:25;7.90;99.90
60293;DHT22;52402;52.670;6.750;2024-03-29T07:52:51;7.90;99.90
60293;DHT22;52402;52.670;6.750;2024-03-29T07:55:17;7.90;99.90
60293;DHT22;52402;52.670;6.750;2024-03-29T07:57:42;7.90;99.90
60293;DHT22;52402;52.670;6.750;2024-03-29T08:00:08;7.90;99.90
60293;DHT22;52402;52.670;6.750;2024-03-29T08:02:36;7.90;99.90
60293;DHT22;52402;52.670;6.750;2024-03-29T08:05:03;8.00;99.90
60293;DHT22;52402;52.670;6.750;2024-03-29T08:07:32;7.90;99.90
60293;DHT22;52402;52.670;6.750;2024-03-29T08:09:57;7.90;99.90
60293;DHT22;52402;52.670;6.750;2024-03-29T08:12:23;7.90;99.90
60293;DHT22;52402;52.670;6.750;2024-03-29T08:14:48;7.90;99.90
60293;DHT22;52402;52.670;6.750;2024-03-29T08:17:14;7.90;99.90
60293;DHT22;52402;52.670;6.750;2024-03-29T08:19:40;7.90;99.90
60293;DHT22;52402;52.670;6.750;2024-03-29T08:22:06;8.00;99.90
60293;DHT22;52402;52.670;6.750;2024-03-29T08:24:33;7.90;99.90
60293;DHT22;52402;52.670;6.750;2024-03-29T08:26:58;7.90;99.90
60293;DHT22;52402;52.670;6.750;2024-03-29T08:29:25;7.90;99.90
60293;DHT22;52402;52.670;6.750;2024-03-29T08:31:50;8.00;99.90
60293;DHT22;52402;52.670;6.750;2024-03-29T08:34:16;8.00;99.90
60293;DHT22;52402;52.670;6.750;2024-03-29T08:36:42;8.10;99.90
60293;DHT22;52402;52.670;6.750;2024-03-29T08:39:07;8.10;99.90
60293;DHT22;52402;52.670;6.750;2024-03-29T08:41:33;8.10;99.90
60293;DHT22;52402;52.670;6.750;2024-03-29T08:43:58;8.10;99.90
60293;DHT22;52402;52.670;6.750;2024-03-29T08:46:24;8.20;99.90
60293;DHT22;52402;52.670;6.750;2024-03-29T08:48:50;8.20;99.90
60293;DHT22;52402;52.670;6.750;2024-03-29T08:51:15;8.20;99.90
60293;DHT22;52402;52.670;6.750;2024-03-29T08:53:41;8.20;99.90
60293;DHT22;52402;52.670;6.750;2024-03-29T08:56:07;8.20;99.90
60293;DHT22;52402;52.670;6.750;2024-03-29T08:58:32;8.10;99.90
60293;DHT22;52402;52.670;6.750;2024-03-29T09:00:58;8.10;99.90
60293;DHT22;52402;52.670;6.750;2024-03-29T09:03:25;8.10;99.90
60293;DHT22;52402;52.670;6.750;2024-03-29T09:05:51;8.10;99.90
60293;DHT22;52402;52.670;6.750;2024-03-29T09:08:18;8.20;99.90
60293;DHT22;52402;52.670;6.750;2024-03-29T09:10:43;8.20;99.90
60293;DHT22;52402;52.670;6.750;2024-03-29T09:13:09;8.30;99.90
60293;DHT22;52402;52.670;6.750;2024-03-29T09:15:36;8.40;99.90
60293;DHT22;52402;52.670;6.750;2024-03-29T09:18:02;8.60;99.90
60293;DHT22;52402;52.670;6.750;2024-03-29T09:20:35;8.70;99.90
60293;DHT22;52402;52.670;6.750;2024-03-29T09:23:01;8.90;99.90
60293;DHT22;52402;52.670;6.750;2024-03-29T09:25:27;8.90;99.90
60293;DHT22;52402;52.670;6.750;2024-03-29T09:27:52;9.10;99.90
60293;DHT22;52402;52.670;6.750;2024-03-29T09:30:18;9.20;99.90
60293;DHT22;52402;52.670;6.750;2024-03-29T09:32:45;9.30;99.90
60293;DHT22;52402;52.670;6.750;2024-03-29T09:35:11;9.50;99.90
60293;DHT22;52402;52.670;6.750;2024-03-29T09:37:36;9.80;99.90
60293;DHT22;52402;52.670;6.750;2024-03-29T09:40:03;10.00;99.90
60293;DHT22;52402;52.670;6.750;2024-03-29T09:42:32;10.20;99.90
60293;DHT22;52402;52.670;6.750;2024-03-29T09:44:59;10.30;99.90
60293;DHT22;52402;52.670;6.750;2024-03-29T09:47:25;10.40;99.90
60293;DHT22;52402;52.670;6.750;2024-03-29T09:49:53;10.60;99.90
60293;DHT22;52402;52.670;6.750;2024-03-29T09:52:20;10.70;99.90
60293;DHT22;52402;52.670;6.750;2024-03-29T09:54:46;10.80;99.90
60293;DHT22;52402;52.670;6.750;2024-03-29T09:57:12;10.70;99.90
60293;DHT22;52402;52.670;6.750;2024-03-29T09:59:38;10.70;99.90
60293;DHT22;52402;52.670;6.750;2024-03-29T10:02:19;10.60;99.90
60293;DHT22;52402;52.670;6.750;2024-03-29T10:04:46;10.80;99.90
60293;DHT22;52402;52.670;6.750;2024-03-29T10:07:14;11.00;99.90
60293;DHT22;52402;52.670;6.750;2024-03-29T10:09:42;11.10;99.90
60293;DHT22;52402;52.670;6.750;2024-03-29T10:12:09;11.20;99.90
60293;DHT22;52402;52.670;6.750;2024-03-29T10:14:48;11.40;99.90
60293;DHT22;52402;52.670;6.750;2024-03-29T10:17:32;11.60;99.90
60293;DHT22;52402;52.670;6.750;2024-03-29T10:20:01;11.70;99.90
60293;DHT22;52402;52.670;6.750;2024-03-29T10:22:35;11.80;99.90
60293;DHT22;52402;52.670;6.750;2024-03-29T10:25:01;12.10;99.90
60293;DHT22;52402;52.670;6.750;2024-03-29T10:27:27;12.20;99.90
60293;DHT22;52402;52.670;6.750;2024-03-29T10:29:53;12.20;99.90
60293;DHT22;52402;52.670;6.750;2024-03-29T10:32:19;12.20;99.90
60293;DHT22;52402;52.670;6.750;2024-03-29T10:34:45;12.30;99.90
60293;DHT22;52402;52.670;6.750;2024-03-29T10:37:10;12.50;99.90
60293;DHT22;52402;52.670;6.750;2024-03-29T10:39:36;12.40;99.90
60293;DHT22;52402;52.670;6.750;2024-03-29T10:42:02;12.30;99.90
60293;DHT22;52402;52.670;6.750;2024-03-29T10:44:30;12.20;99.90
60293;DHT22;52402;52.670;6.750;2024-03-29T10:46:56;12.10;99.90
60293;DHT22;52402;52.670;6.750;2024-03-29T10:49:23;12.10;99.90
60293;DHT22;52402;52.670;6.750;2024-03-29T10:51:50;12.30;99.90
60293;DHT22;52402;52.670;6.750;2024-03-29T10:54:17;12.40;99.90
60293;DHT22;52402;52.670;6.750;2024-03-29T10:56:47;12.60;99.90
60293;DHT22;52402;52.670;6.750;2024-03-29T10:59:18;12.80;99.90
60293;DHT22;52402;52.670;6.750;2024-03-29T11:01:50;12.90;99.90
60293;DHT22;52402;52.670;6.750;2024-03-29T11:04:22;13.00;99.90
60293;DHT22;52402;52.670;6.750;2024-03-29T11:06:51;13.10;99.90
60293;DHT22;52402;52.670;6.750;2024-03-29T11:09:20;12.90;99.90
60293;DHT22;52402;52.670;6.750;2024-03-29T11:11:50;13.10;99.90
60293;DHT22;52402;52.670;6.750;2024-03-29T11:14:20;13.30;99.90
60293;DHT22;52402;52.670;6.750;2024-03-29T11:16:49;13.50;99.90
60293;DHT22;52402;52.670;6.750;2024-03-29T11:19:20;13.70;99.90
60293;DHT22;52402;52.670;6.750;2024-03-29T11:21:46;13.80;99.90
60293;DHT22;52402;52.670;6.750;2024-03-29T11:24:17;14.00;99.90
60293;DHT22;52402;52.670;6.750;2024-03-29T11:26:45;14.20;99.90
60293;DHT22;52402;52.670;6.750;2024-03-29T11:29:19;14.40;99.90
60293;DHT22;52402;52.670;6.750;2024-03-29T11:31:45;14.50;99.90
60293;DHT22;52402;52.670;6.750;2024-03-29T11:34:12;14.40;99.90
60293;DHT22;52402;52.670;6.750;2024-03-29T11:36:39;14.20;99.90
60293;DHT22;52402;52.670;6.750;2024-03-29T11:39:05;14.20;99.90
60293;DHT22;52402;52.670;6.750;2024-03-29T11:41:30;14.00;99.90
60293;DHT22;52402;52.670;6.750;2024-03-29T11:43:57;14.00;99.90
60293;DHT22;52402;52.670;6.750;2024-03-29T11:46:24;14.10;99.90
60293;DHT22;52402;52.670;6.750;2024-03-29T11:48:50;14.00;99.90
60293;DHT22;52402;52.670;6.750;2024-03-29T11:51:21;14.10;99.90
60293;DHT22;52402;52.670;6.750;2024-03-29T11:53:50;14.30;99.90
60293;DHT22;52402;52.670;6.750;2024-03-29T11:56:17;14.20;99.90
60293;DHT22;52402;52.670;6.750;2024-03-29T11:58:43;14.10;99.90
60293;DHT22;52402;52.670;6.750;2024-03-29T12:01:09;14.00;99.90
60293;DHT22;52402;52.670;6.750;2024-03-29T12:03:38;13.90;99.90
60293;DHT22;52402;52.670;6.750;2024-03-29T12:06:05;13.90;99.90
60293;DHT22;52402;52.670;6.750;2024-03-29T12:08:32;13.90;99.90
60293;DHT22;52402;52.670;6.750;2024-03-29T12:10:59;14.10;99.90
60293;DHT22;52402;52.670;6.750;2024-03-29T12:13:25;14.40;99.90
60293;DHT22;52402;52.670;6.750;2024-03-29T12:15:51;14.40;99.90
60293;DHT22;52402;52.670;6.750;2024-03-29T12:18:19;14.20;99.90
60293;DHT22;52402;52.670;6.750;2024-03-29T12:20:45;14.10;99.90
60293;DHT22;52402;52.670;6.750;2024-03-29T12:23:20;14.20;99.90
60293;DHT22;52402;52.670;6.750;2024-03-29T12:25:47;14.20;99.90
60293;DHT22;52402;52.670;6.750;2024-03-29T12:28:14;14.60;99.90
60293;DHT22;52402;52.670;6.750;2024-03-29T12:30:43;14.70;99.90
60293;DHT22;52402;52.670;6.750;2024-03-29T12:33:13;14.60;99.90
60293;DHT22;52402;52.670;6.750;2024-03-29T12:35:42;14.70;99.90
60293;DHT22;52402;52.670;6.750;2024-03-29T12:38:11;14.80;99.90
60293;DHT22;52402;52.670;6.750;2024-03-29T12:40:37;14.60;99.90
60293;DHT22;52402;52.670;6.750;2024-03-29T12:43:06;14.50;99.90
60293;DHT22;52402;52.670;6.750;2024-03-29T12:45:33;14.40;99.90
60293;DHT22;52402;52.670;6.750;2024-03-29T12:47:59;14.30;99.90
60293;DHT22;52402;52.670;6.750;2024-03-29T12:50:28;14.10;99.90
60293;DHT22;52402;52.670;6.750;2024-03-29T12:52:58;14.10;99.90
60293;DHT22;52402;52.670;6.750;2024-03-29T12:55:24;13.90;99.90
60293;DHT22;52402;52.670;6.750;2024-03-29T12:57:54;13.80;99.90
60293;DHT22;52402;52.670;6.750;2024-03-29T13:00:23;13.60;99.90
60293;DHT22;52402;52.670;6.750;2024-03-29T13:02:49;13.60;99.90
60293;DHT22;52402;52.670;6.750;2024-03-29T13:05:15;13.70;99.90
60293;DHT22;52402;52.670;6.750;2024-03-29T13:07:41;13.80;99.90
60293;DHT22;52402;52.670;6.750;2024-03-29T13:10:07;13.80;99.90
60293;DHT22;52402;52.670;6.750;2024-03-29T13:12:42;13.90;99.90
60293;DHT22;52402;52.670;6.750;2024-03-29T13:15:22;14.00;99.90
60293;DHT22;52402;52.670;6.750;2024-03-29T13:17:51;14.30;99.90
60293;DHT22;52402;52.670;6.750;2024-03-29T13:20:17;14.50;99.90
60293;DHT22;52402;52.670;6.750;2024-03-29T13:22:44;14.70;99.90
60293;DHT22;52402;52.670;6.750;2024-03-29T13:25:18;14.80;99.90
60293;DHT22;52402;52.670;6.750;2024-03-29T13:27:45;14.90;99.90
60293;DHT22;52402;52.670;6.750;2024-03-29T13:30:12;14.90;99.90
60293;DHT22;52402;52.670;6.750;2024-03-29T13:32:38;14.90;99.90
60293;DHT22;52402;52.670;6.750;2024-03-29T13:35:05;14.80;99.90
60293;DHT22;52402;52.670;6.750;2024-03-29T13:37:38;14.80;99.90
60293;DHT22;52402;52.670;6.750;2024-03-29T13:40:05;14.90;99.90
60293;DHT22;52402;52.670;6.750;2024-03-29T13:42:31;15.00;99.90
60293;DHT22;52402;52.670;6.750;2024-03-29T13:44:57;14.90;99.90
60293;DHT22;52402;52.670;6.750;2024-03-29T13:47:23;15.10;99.90
60293;DHT22;52402;52.670;6.750;2024-03-29T13:49:48;15.20;99.90
60293;DHT22;52402;52.670;6.750;2024-03-29T13:52:18;15.30;99.90
60293;DHT22;52402;52.670;6.750;2024-03-29T13:54:44;15.50;99.90
60293;DHT22;52402;52.670;6.750;2024-03-29T13:57:14;15.60;99.90
60293;DHT22;52402;52.670;6.750;2024-03-29T13:59:40;15.70;99.90
60293;DHT22;52402;52.670;6.750;2024-03-29T14:02:17;15.70;99.90
60293;DHT22;52402;52.670;6.750;2024-03-29T14:04:44;15.70;99.90
60293;DHT22;52402;52.670;6.750;2024-03-29T14:07:12;15.60;99.90
60293;DHT22;52402;52.670;6.750;2024-03-29T14:09:39;15.50;99.90
60293;DHT22;52402;52.670;6.750;2024-03-29T14:12:05;15.70;99.90
60293;DHT22;52402;52.670;6.750;2024-03-29T14:14:31;15.70;99.90
60293;DHT22;52402;52.670;6.750;2024-03-29T14:16:58;15.70;99.90
60293;DHT22;52402;52.670;6.750;2024-03-29T14:19:24;15.50;99.90
60293;DHT22;52402;52.670;6.750;2024-03-29T14:21:50;15.50;99.90
60293;DHT22;52402;52.670;6.750;2024-03-29T14:24:15;15.50;99.90
60293;DHT22;52402;52.670;6.750;2024-03-29T14:26:43;15.40;99.90
60293;DHT22;52402;52.670;6.750;2024-03-29T14:29:08;15.30;99.90
60293;DHT22;52402;52.670;6.750;2024-03-29T14:31:37;15.30;99.90
60293;DHT22;52402;52.670;6.750;2024-03-29T14:34:02;15.30;99.90
60293;DHT22;52402;52.670;6.750;2024-03-29T14:36:28;15.30;99.90
60293;DHT22;52402;52.670;6.750;2024-03-29T14:38:56;15.30;99.90
60293;DHT22;52402;52.670;6.750;2024-03-29T14:41:22;15.30;99.90
60293;DHT22;52402;52.670;6.750;2024-03-29T14:43:48;15.30;99.90
60293;DHT22;52402;52.670;6.750;2024-03-29T14:46:16;15.30;99.90
60293;DHT22;52402;52.670;6.750;2024-03-29T14:48:41;15.30;99.90
60293;DHT22;52402;52.670;6.750;2024-03-29T14:51:08;15.30;99.90
60293;DHT22;52402;52.670;6.750;2024-03-29T14:53:34;15.30;99.90
60293;DHT22;52402;52.670;6.750;2024-03-29T14:55:59;15.30;99.90
60293;DHT22;52402;52.670;6.750;2024-03-29T14:58:27;15.30;99.90
60293;DHT22;52402;52.670;6.750;2024-03-29T15:00:53;15.30;99.90
60293;DHT22;52402;52.670;6.750;2024-03-29T15:03:18;15.30;99.90
60293;DHT22;52402;52.670;6.750;2024-03-29T15:05:44;15.30;99.90
60293;DHT22;52402;52.670;6.750;2024-03-29T15:08:10;15.20;99.90
60293;DHT22;52402;52.670;6.750;2024-03-29T15:10:42;15.20;99.90
60293;DHT22;52402;52.670;6.750;2024-03-29T15:13:08;15.10;99.90
60293;DHT22;52402;52.670;6.750;2024-03-29T15:15:33;15.00;99.90
60293;DHT22;52402;52.670;6.750;2024-03-29T15:18:03;15.00;99.90
60293;DHT22;52402;52.670;6.750;2024-03-29T15:20:28;14.90;99.90
60293;DHT22;52402;52.670;6.750;2024-03-29T15:22:54;14.90;99.90
60293;DHT22;52402;52.670;6.750;2024-03-29T15:25:21;14.90;99.90
60293;DHT22;52402;52.670;6.750;2024-03-29T15:27:47;14.90;99.90
60293;DHT22;52402;52.670;6.750;2024-03-29T15:30:31;14.80;99.90
60293;DHT22;52402;52.670;6.750;2024-03-29T15:32:59;14.80;99.90
60293;DHT22;52402;52.670;6.750;2024-03-29T15:35:25;14.70;99.90
60293;DHT22;52402;52.670;6.750;2024-03-29T15:37:50;14.70;99.90